sensor_id;sensor_type;location;lat;lon;timestamp;pressure;altitude;pressure_sealevel;temperature;humidity
37200;BME280;23096;50.892;16.746;2023-07-24T00:01:29;98629.41;;;22.40;40.96
37200;BME280;23096;50.892;16.746;2023-07-24T00:03:54;98631.03;;;22.33;41.01
37200;BME280;23096;50.892;16.746;2023-07-24T00:06:21;98630.45;;;22.30;41.07
37200;BME280;23096;50.892;16.746;2023-07-24T00:08:47;98631.36;;;22.28;41.16
37200;BME280;23096;50.892;16.746;2023-07-24T00:11:12;98625.92;;;22.28;41.15
37200;BME280;23096;50.892;16.746;2023-07-24T00:13:38;98624.20;;;22.26;41.12
37200;BME280;23096;50.892;16.746;2023-07-24T00:16:09;98623.95;;;22.22;41.21
37200;BME280;23096;50.892;16.746;2023-07-24T00:18:35;98624.39;;;22.19;41.25
37200;BME280;23096;50.892;16.746;2023-07-24T00:21:01;98623.54;;;22.13;41.28
37200;BME280;23096;50.892;16.746;2023-07-24T00:23:26;98623.98;;;22.03;41.22
37200;BME280;23096;50.892;16.746;2023-07-24T00:25:52;98627.14;;;21.87;41.27
37200;BME280;23096;50.892;16.746;2023-07-24T00:28:18;98628.86;;;21.77;41.22
37200;BME280;23096;50.892;16.746;2023-07-24T00:30:43;98624.91;;;21.70;41.33
37200;BME280;23096;50.892;16.746;2023-07-24T00:33:09;98616.68;;;21.66;41.21
37200;BME280;23096;50.892;16.746;2023-07-24T00:35:34;98616.17;;;21.66;41.22
37200;BME280;23096;50.892;16.746;2023-07-24T00:38:00;98612.16;;;21.66;41.28
37200;BME280;23096;50.892;16.746;2023-07-24T00:40:26;98606.94;;;21.66;41.39
37200;BME280;23096;50.892;16.746;2023-07-24T00:42:51;98599.98;;;21.61;41.43
37200;BME280;23096;50.892;16.746;2023-07-24T00:45:17;98593.36;;;21.55;41.47
37200;BME280;23096;50.892;16.746;2023-07-24T00:47:43;98592.83;;;21.50;41.52
37200;BME280;23096;50.892;16.746;2023-07-24T00:50:11;98594.19;;;21.42;41.62
37200;BME280;23096;50.892;16.746;2023-07-24T00:52:39;98596.17;;;21.35;41.67
37200;BME280;23096;50.892;16.746;2023-07-24T00:55:05;98593.11;;;21.32;41.83
37200;BME280;23096;50.892;16.746;2023-07-24T00:57:32;98594.88;;;21.35;41.94
37200;BME280;23096;50.892;16.746;2023-07-24T00:59:57;98595.97;;;21.43;42.13
37200;BME280;23096;50.892;16.746;2023-07-24T01:02:23;98594.29;;;21.53;42.12
37200;BME280;23096;50.892;16.746;2023-07-24T01:04:49;98595.01;;;21.64;42.26
37200;BME280;23096;50.892;16.746;2023-07-24T01:07:14;98595.78;;;21.76;42.36
37200;BME280;23096;50.892;16.746;2023-07-24T01:09:42;98595.17;;;21.84;42.24
37200;BME280;23096;50.892;16.746;2023-07-24T01:12:13;98597.31;;;21.94;42.22
37200;BME280;23096;50.892;16.746;2023-07-24T01:14:50;98597.64;;;21.94;41.99
37200;BME280;23096;50.892;16.746;2023-07-24T01:17:23;98589.86;;;21.81;41.96
37200;BME280;23096;50.892;16.746;2023-07-24T01:19:54;98589.06;;;21.66;42.04
37200;BME280;23096;50.892;16.746;2023-07-24T01:27:46;98586.09;;;21.42;42.32
37200;BME280;23096;50.892;16.746;2023-07-24T01:30:19;98589.16;;;21.39;42.32
37200;BME280;23096;50.892;16.746;2023-07-24T01:32:46;98591.80;;;21.35;42.44
37200;BME280;23096;50.892;16.746;2023-07-24T01:35:12;98596.60;;;21.32;42.51
37200;BME280;23096;50.892;16.746;2023-07-24T01:37:38;98597.52;;;21.29;42.56
37200;BME280;23096;50.892;16.746;2023-07-24T01:40:09;98596.27;;;21.25;42.77
37200;BME280;23096;50.892;16.746;2023-07-24T01:42:35;98594.19;;;21.23;42.93
37200;BME280;23096;50.892;16.746;2023-07-24T01:45:03;98596.08;;;21.35;43.33
37200;BME280;23096;50.892;16.746;2023-07-24T01:47:29;98590.42;;;21.55;43.13
37200;BME280;23096;50.892;16.746;2023-07-24T01:49:55;98584.13;;;21.75;43.24
37200;BME280;23096;50.892;16.746;2023-07-24T01:52:21;98580.21;;;21.90;43.13
37200;BME280;23096;50.892;16.746;2023-07-24T01:54:47;98587.63;;;22.03;43.00
37200;BME280;23096;50.892;16.746;2023-07-24T01:57:13;98585.15;;;22.11;42.90
37200;BME280;23096;50.892;16.746;2023-07-24T01:59:39;98576.56;;;22.18;42.88
37200;BME280;23096;50.892;16.746;2023-07-24T02:02:05;98574.27;;;22.29;42.84
37200;BME280;23096;50.892;16.746;2023-07-24T02:04:30;98575.61;;;22.39;42.76
37200;BME280;23096;50.892;16.746;2023-07-24T02:06:56;98576.98;;;22.45;42.52
37200;BME280;23096;50.892;16.746;2023-07-24T02:09:21;98575.45;;;22.50;42.51
37200;BME280;23096;50.892;16.746;2023-07-24T02:11:47;98577.69;;;22.55;42.45
37200;BME280;23096;50.892;16.746;2023-07-24T02:14:14;98572.65;;;22.62;42.43
37200;BME280;23096;50.892;16.746;2023-07-24T02:16:39;98568.48;;;22.69;42.31
37200;BME280;23096;50.892;16.746;2023-07-24T02:19:05;98562.96;;;22.73;42.20
37200;BME280;23096;50.892;16.746;2023-07-24T02:21:32;98557.14;;;22.78;42.11
37200;BME280;23096;50.892;16.746;2023-07-24T02:23:58;98551.55;;;22.82;41.99
37200;BME280;23096;50.892;16.746;2023-07-24T02:26:23;98546.53;;;22.81;41.98
37200;BME280;23096;50.892;16.746;2023-07-24T02:28:49;98547.16;;;22.82;41.85
37200;BME280;23096;50.892;16.746;2023-07-24T02:31:14;98546.27;;;22.82;41.76
37200;BME280;23096;50.892;16.746;2023-07-24T02:33:40;98546.11;;;22.82;41.71
37200;BME280;23096;50.892;16.746;2023-07-24T02:36:06;98549.48;;;22.84;41.61
37200;BME280;23096;50.892;16.746;2023-07-24T02:38:33;98552.34;;;22.84;41.65
37200;BME280;23096;50.892;16.746;2023-07-24T02:40:59;98547.89;;;22.85;41.56
37200;BME280;23096;50.892;16.746;2023-07-24T02:43:24;98544.44;;;22.87;41.61
37200;BME280;23096;50.892;16.746;2023-07-24T02:45:50;98548.48;;;22.88;41.32
37200;BME280;23096;50.892;16.746;2023-07-24T02:48:15;98548.93;;;22.89;41.35
37200;BME280;23096;50.892;16.746;2023-07-24T02:50:41;98555.24;;;22.91;41.26
37200;BME280;23096;50.892;16.746;2023-07-24T02:53:06;98559.92;;;22.91;41.32
37200;BME280;23096;50.892;16.746;2023-07-24T02:55:32;98561.21;;;22.92;41.18
37200;BME280;23096;50.892;16.746;2023-07-24T02:57:58;98554.36;;;22.93;41.21
37200;BME280;23096;50.892;16.746;2023-07-24T03:00:23;98541.63;;;22.92;41.11
37200;BME280;23096;50.892;16.746;2023-07-24T03:02:49;98539.54;;;22.96;41.11
37200;BME280;23096;50.892;16.746;2023-07-24T03:05:15;98537.00;;;22.99;41.12
37200;BME280;23096;50.892;16.746;2023-07-24T03:07:40;98540.30;;;22.99;41.09
37200;BME280;23096;50.892;16.746;2023-07-24T03:10:06;98543.36;;;22.98;41.13
37200;BME280;23096;50.892;16.746;2023-07-24T03:12:33;98541.10;;;22.98;41.07
37200;BME280;23096;50.892;16.746;2023-07-24T03:14:58;98535.45;;;22.98;41.07
37200;BME280;23096;50.892;16.746;2023-07-24T03:17:24;98538.65;;;23.00;41.04
37200;BME280;23096;50.892;16.746;2023-07-24T03:19:50;98544.45;;;23.03;41.05
37200;BME280;23096;50.892;16.746;2023-07-24T03:22:15;98550.23;;;23.07;40.95
37200;BME280;23096;50.892;16.746;2023-07-24T03:24:41;98553.66;;;23.10;40.89
37200;BME280;23096;50.892;16.746;2023-07-24T03:27:07;98555.99;;;23.11;40.79
37200;BME280;23096;50.892;16.746;2023-07-24T03:29:32;98549.15;;;23.13;40.85
37200;BME280;23096;50.892;16.746;2023-07-24T03:31:58;98545.83;;;23.15;40.69
37200;BME280;23096;50.892;16.746;2023-07-24T03:34:24;98538.83;;;23.17;40.66
37200;BME280;23096;50.892;16.746;2023-07-24T03:36:50;98536.11;;;23.18;40.63
37200;BME280;23096;50.892;16.746;2023-07-24T03:39:16;98545.54;;;23.18;40.47
37200;BME280;23096;50.892;16.746;2023-07-24T03:41:42;98543.59;;;23.16;40.34
37200;BME280;23096;50.892;16.746;2023-07-24T03:44:08;98536.59;;;23.14;40.30
37200;BME280;23096;50.892;16.746;2023-07-24T03:46:34;98528.97;;;23.14;40.43
37200;BME280;23096;50.892;16.746;2023-07-24T03:49:00;98524.17;;;23.14;40.34
37200;BME280;23096;50.892;16.746;2023-07-24T03:51:25;98514.77;;;23.14;40.25
37200;BME280;23096;50.892;16.746;2023-07-24T03:53:51;98515.09;;;23.12;40.15
37200;BME280;23096;50.892;16.746;2023-07-24T03:56:16;98522.52;;;23.10;40.13
37200;BME280;23096;50.892;16.746;2023-07-24T03:58:42;98526.39;;;23.09;40.15
37200;BME280;23096;50.892;16.746;2023-07-24T04:01:08;98533.27;;;23.09;40.06
37200;BME280;23096;50.892;16.746;2023-07-24T04:03:34;98535.02;;;23.07;39.97
37200;BME280;23096;50.892;16.746;2023-07-24T04:06:00;98538.27;;;23.04;39.90
37200;BME280;23096;50.892;16.746;2023-07-24T04:08:26;98542.02;;;23.03;39.92
37200;BME280;23096;50.892;16.746;2023-07-24T04:10:51;98537.27;;;23.02;39.86
37200;BME280;23096;50.892;16.746;2023-07-24T04:13:17;98540.82;;;23.01;39.93
37200;BME280;23096;50.892;16.746;2023-07-24T04:15:43;98543.55;;;23.02;39.82
37200;BME280;23096;50.892;16.746;2023-07-24T04:18:10;98544.37;;;23.02;39.79
37200;BME280;23096;50.892;16.746;2023-07-24T04:20:35;98543.27;;;23.03;39.92
37200;BME280;23096;50.892;16.746;2023-07-24T04:23:01;98545.39;;;23.03;39.71
37200;BME280;23096;50.892;16.746;2023-07-24T04:25:26;98549.39;;;23.03;39.84
37200;BME280;23096;50.892;16.746;2023-07-24T04:27:52;98552.77;;;23.04;39.83
37200;BME280;23096;50.892;16.746;2023-07-24T04:30:18;98548.27;;;23.06;39.90
37200;BME280;23096;50.892;16.746;2023-07-24T04:32:43;98549.90;;;23.09;39.87
37200;BME280;23096;50.892;16.746;2023-07-24T04:35:09;98552.34;;;23.13;39.95
37200;BME280;23096;50.892;16.746;2023-07-24T04:37:34;98553.44;;;23.16;39.84
37200;BME280;23096;50.892;16.746;2023-07-24T04:40:00;98554.43;;;23.17;39.88
37200;BME280;23096;50.892;16.746;2023-07-24T04:42:26;98554.21;;;23.17;39.80
37200;BME280;23096;50.892;16.746;2023-07-24T04:44:51;98553.40;;;23.19;39.90
37200;BME280;23096;50.892;16.746;2023-07-24T04:47:17;98551.32;;;23.20;39.89
37200;BME280;23096;50.892;16.746;2023-07-24T04:49:42;98546.64;;;23.21;39.93
37200;BME280;23096;50.892;16.746;2023-07-24T04:52:08;98546.84;;;23.23;39.87
37200;BME280;23096;50.892;16.746;2023-07-24T04:54:33;98544.11;;;23.24;39.76
37200;BME280;23096;50.892;16.746;2023-07-24T04:56:59;98544.52;;;23.25;39.80
37200;BME280;23096;50.892;16.746;2023-07-24T04:59:24;98542.17;;;23.26;39.91
37200;BME280;23096;50.892;16.746;2023-07-24T05:01:50;98540.98;;;23.27;39.76
37200;BME280;23096;50.892;16.746;2023-07-24T05:04:18;98536.86;;;23.28;39.84
37200;BME280;23096;50.892;16.746;2023-07-24T05:06:44;98533.11;;;23.29;39.76
37200;BME280;23096;50.892;16.746;2023-07-24T05:09:09;98533.90;;;23.28;39.77
37200;BME280;23096;50.892;16.746;2023-07-24T05:11:35;98534.23;;;23.28;39.96
37200;BME280;23096;50.892;16.746;2023-07-24T05:14:00;98528.52;;;23.31;39.86
37200;BME280;23096;50.892;16.746;2023-07-24T05:16:26;98523.84;;;23.34;39.86
37200;BME280;23096;50.892;16.746;2023-07-24T05:18:51;98519.17;;;23.39;39.91
37200;BME280;23096;50.892;16.746;2023-07-24T05:21:17;98521.75;;;23.44;39.85
37200;BME280;23096;50.892;16.746;2023-07-24T05:23:42;98515.23;;;23.47;39.97
37200;BME280;23096;50.892;16.746;2023-07-24T05:26:08;98511.25;;;23.49;40.06
37200;BME280;23096;50.892;16.746;2023-07-24T05:28:33;98511.55;;;23.51;39.99
37200;BME280;23096;50.892;16.746;2023-07-24T05:31:03;98508.70;;;23.51;39.93
37200;BME280;23096;50.892;16.746;2023-07-24T05:33:29;98501.22;;;23.51;40.03
37200;BME280;23096;50.892;16.746;2023-07-24T05:36:03;98501.67;;;23.50;40.03
37200;BME280;23096;50.892;16.746;2023-07-24T05:38:29;98505.11;;;23.49;40.07
37200;BME280;23096;50.892;16.746;2023-07-24T05:40:56;98498.23;;;23.47;40.21
37200;BME280;23096;50.892;16.746;2023-07-24T05:43:21;98492.39;;;23.46;40.12
37200;BME280;23096;50.892;16.746;2023-07-24T05:45:47;98486.24;;;23.45;40.25
37200;BME280;23096;50.892;16.746;2023-07-24T05:48:12;98482.11;;;23.44;40.12
37200;BME280;23096;50.892;16.746;2023-07-24T05:50:38;98470.73;;;23.42;40.23
37200;BME280;23096;50.892;16.746;2023-07-24T05:53:03;98462.85;;;23.42;40.33
37200;BME280;23096;50.892;16.746;2023-07-24T05:55:29;98457.06;;;23.42;40.40
37200;BME280;23096;50.892;16.746;2023-07-24T05:57:55;98465.77;;;23.42;40.29
37200;BME280;23096;50.892;16.746;2023-07-24T06:00:20;98473.16;;;23.44;40.52
37200;BME280;23096;50.892;16.746;2023-07-24T06:02:46;98474.89;;;23.44;40.61
37200;BME280;23096;50.892;16.746;2023-07-24T06:05:11;98477.64;;;23.46;40.66
37200;BME280;23096;50.892;16.746;2023-07-24T06:07:37;98471.86;;;23.48;40.77
37200;BME280;23096;50.892;16.746;2023-07-24T06:10:02;98480.95;;;23.50;40.96
37200;BME280;23096;50.892;16.746;2023-07-24T06:12:28;98476.57;;;23.52;40.94
37200;BME280;23096;50.892;16.746;2023-07-24T06:14:54;98478.99;;;23.54;41.02
37200;BME280;23096;50.892;16.746;2023-07-24T06:17:19;98484.30;;;23.53;41.19
37200;BME280;23096;50.892;16.746;2023-07-24T06:19:45;98480.01;;;23.55;41.16
37200;BME280;23096;50.892;16.746;2023-07-24T06:22:11;98478.91;;;23.55;41.10
37200;BME280;23096;50.892;16.746;2023-07-24T06:24:36;98474.36;;;23.55;41.23
37200;BME280;23096;50.892;16.746;2023-07-24T06:27:03;98479.97;;;23.55;41.37
37200;BME280;23096;50.892;16.746;2023-07-24T06:29:32;98479.52;;;23.56;41.29
37200;BME280;23096;50.892;16.746;2023-07-24T06:31:57;98478.63;;;23.58;41.28
37200;BME280;23096;50.892;16.746;2023-07-24T06:34:23;98478.33;;;23.59;41.35
37200;BME280;23096;50.892;16.746;2023-07-24T06:36:48;98472.54;;;23.61;41.34
37200;BME280;23096;50.892;16.746;2023-07-24T06:39:15;98475.84;;;23.65;41.28
37200;BME280;23096;50.892;16.746;2023-07-24T06:41:41;98475.71;;;23.68;41.29
37200;BME280;23096;50.892;16.746;2023-07-24T06:44:06;98474.69;;;23.71;41.15
37200;BME280;23096;50.892;16.746;2023-07-24T06:46:32;98475.90;;;23.75;41.23
37200;BME280;23096;50.892;16.746;2023-07-24T06:48:57;98471.98;;;23.78;41.37
37200;BME280;23096;50.892;16.746;2023-07-24T06:51:23;98467.13;;;23.79;41.24
37200;BME280;23096;50.892;16.746;2023-07-24T06:53:49;98468.14;;;23.81;41.20
37200;BME280;23096;50.892;16.746;2023-07-24T06:56:14;98463.32;;;23.82;41.23
37200;BME280;23096;50.892;16.746;2023-07-24T06:58:40;98459.04;;;23.83;41.05
37200;BME280;23096;50.892;16.746;2023-07-24T07:01:06;98458.44;;;23.82;41.01
37200;BME280;23096;50.892;16.746;2023-07-24T07:03:32;98456.61;;;23.79;41.11
37200;BME280;23096;50.892;16.746;2023-07-24T07:06:00;98457.42;;;23.78;41.06
37200;BME280;23096;50.892;16.746;2023-07-24T07:08:26;98453.85;;;23.76;41.05
37200;BME280;23096;50.892;16.746;2023-07-24T07:10:56;98458.59;;;23.78;40.97
37200;BME280;23096;50.892;16.746;2023-07-24T07:13:22;98447.78;;;23.81;41.20
37200;BME280;23096;50.892;16.746;2023-07-24T07:15:48;98444.83;;;23.85;41.26
37200;BME280;23096;50.892;16.746;2023-07-24T07:18:13;98447.15;;;23.93;41.26
37200;BME280;23096;50.892;16.746;2023-07-24T07:20:45;98449.48;;;24.03;41.37
37200;BME280;23096;50.892;16.746;2023-07-24T07:23:10;98451.23;;;24.15;41.46
37200;BME280;23096;50.892;16.746;2023-07-24T07:25:36;98448.46;;;24.31;41.60
37200;BME280;23096;50.892;16.746;2023-07-24T07:28:01;98439.04;;;24.44;41.45
37200;BME280;23096;50.892;16.746;2023-07-24T07:30:28;98441.23;;;24.54;41.45
37200;BME280;23096;50.892;16.746;2023-07-24T07:32:53;98441.77;;;24.62;41.52
37200;BME280;23096;50.892;16.746;2023-07-24T07:35:19;98446.83;;;24.70;41.36
37200;BME280;23096;50.892;16.746;2023-07-24T07:37:45;98445.14;;;24.76;41.33
37200;BME280;23096;50.892;16.746;2023-07-24T07:40:10;98442.59;;;24.82;41.21
37200;BME280;23096;50.892;16.746;2023-07-24T07:42:36;98446.84;;;24.85;41.26
37200;BME280;23096;50.892;16.746;2023-07-24T07:45:02;98443.23;;;24.91;41.38
37200;BME280;23096;50.892;16.746;2023-07-24T07:47:28;98449.24;;;24.97;41.19
37200;BME280;23096;50.892;16.746;2023-07-24T07:49:53;98445.38;;;25.02;41.18
37200;BME280;23096;50.892;16.746;2023-07-24T07:52:19;98438.94;;;25.05;41.17
37200;BME280;23096;50.892;16.746;2023-07-24T07:54:50;98439.06;;;25.07;41.14
37200;BME280;23096;50.892;16.746;2023-07-24T07:57:15;98441.42;;;25.10;41.18
37200;BME280;23096;50.892;16.746;2023-07-24T07:59:41;98446.98;;;25.12;41.15
37200;BME280;23096;50.892;16.746;2023-07-24T08:02:07;98436.21;;;25.14;41.24
37200;BME280;23096;50.892;16.746;2023-07-24T08:04:33;98439.45;;;25.17;41.26
37200;BME280;23096;50.892;16.746;2023-07-24T08:06:59;98442.19;;;25.19;41.27
37200;BME280;23096;50.892;16.746;2023-07-24T08:09:24;98441.31;;;25.21;41.30
37200;BME280;23096;50.892;16.746;2023-07-24T08:11:50;98441.19;;;25.26;41.27
37200;BME280;23096;50.892;16.746;2023-07-24T08:14:17;98437.27;;;25.31;41.19
37200;BME280;23096;50.892;16.746;2023-07-24T08:16:43;98434.74;;;25.40;41.26
37200;BME280;23096;50.892;16.746;2023-07-24T08:19:09;98433.29;;;25.46;41.16
37200;BME280;23096;50.892;16.746;2023-07-24T08:21:34;98428.68;;;25.48;40.95
37200;BME280;23096;50.892;16.746;2023-07-24T08:24:01;98427.65;;;25.51;40.84
37200;BME280;23096;50.892;16.746;2023-07-24T08:26:28;98433.63;;;25.52;40.82
37200;BME280;23096;50.892;16.746;2023-07-24T08:28:53;98435.98;;;25.54;40.88
37200;BME280;23096;50.892;16.746;2023-07-24T08:31:19;98441.28;;;25.59;40.89
37200;BME280;23096;50.892;16.746;2023-07-24T08:33:45;98428.06;;;25.71;40.97
37200;BME280;23096;50.892;16.746;2023-07-24T08:36:10;98435.41;;;25.82;40.96
37200;BME280;23096;50.892;16.746;2023-07-24T08:38:37;98439.51;;;25.93;40.81
37200;BME280;23096;50.892;16.746;2023-07-24T08:41:08;98444.36;;;26.05;40.75
37200;BME280;23096;50.892;16.746;2023-07-24T08:43:35;98439.69;;;26.15;40.75
37200;BME280;23096;50.892;16.746;2023-07-24T08:46:02;98431.41;;;26.27;40.62
37200;BME280;23096;50.892;16.746;2023-07-24T08:48:36;98424.05;;;26.38;40.50
37200;BME280;23096;50.892;16.746;2023-07-24T08:51:06;98424.19;;;26.48;40.47
37200;BME280;23096;50.892;16.746;2023-07-24T08:53:33;98421.85;;;26.54;40.40
37200;BME280;23096;50.892;16.746;2023-07-24T08:56:03;98416.71;;;26.63;40.32
37200;BME280;23096;50.892;16.746;2023-07-24T08:58:28;98413.05;;;26.73;40.20
37200;BME280;23096;50.892;16.746;2023-07-24T09:00:56;98410.02;;;26.83;40.16
37200;BME280;23096;50.892;16.746;2023-07-24T09:03:22;98408.16;;;26.86;39.98
37200;BME280;23096;50.892;16.746;2023-07-24T09:05:47;98414.67;;;26.86;39.88
37200;BME280;23096;50.892;16.746;2023-07-24T09:08:13;98411.48;;;26.87;39.73
37200;BME280;23096;50.892;16.746;2023-07-24T09:10:39;98407.51;;;26.85;39.63
37200;BME280;23096;50.892;16.746;2023-07-24T09:13:05;98406.07;;;26.83;39.61
37200;BME280;23096;50.892;16.746;2023-07-24T09:15:42;98399.66;;;26.75;39.62
37200;BME280;23096;50.892;16.746;2023-07-24T09:18:08;98396.49;;;26.59;39.49
37200;BME280;23096;50.892;16.746;2023-07-24T09:20:40;98395.11;;;26.46;39.46
37200;BME280;23096;50.892;16.746;2023-07-24T09:23:07;98397.07;;;26.33;39.50
37200;BME280;23096;50.892;16.746;2023-07-24T09:25:35;98401.38;;;26.25;39.68
37200;BME280;23096;50.892;16.746;2023-07-24T09:28:08;98396.29;;;26.13;39.65
37200;BME280;23096;50.892;16.746;2023-07-24T09:30:34;98395.08;;;26.00;39.56
37200;BME280;23096;50.892;16.746;2023-07-24T09:32:59;98402.20;;;25.91;39.72
37200;BME280;23096;50.892;16.746;2023-07-24T09:35:25;98396.70;;;25.87;39.98
37200;BME280;23096;50.892;16.746;2023-07-24T09:38:06;98399.96;;;25.88;40.20
37200;BME280;23096;50.892;16.746;2023-07-24T09:40:40;98390.70;;;25.98;40.28
37200;BME280;23096;50.892;16.746;2023-07-24T09:43:23;98374.83;;;26.12;40.40
37200;BME280;23096;50.892;16.746;2023-07-24T09:45:50;98375.24;;;26.27;40.60
37200;BME280;23096;50.892;16.746;2023-07-24T09:48:17;98371.48;;;26.40;40.84
37200;BME280;23096;50.892;16.746;2023-07-24T09:50:45;98368.15;;;26.51;41.01
37200;BME280;23096;50.892;16.746;2023-07-24T09:53:21;98365.81;;;26.68;40.96
37200;BME280;23096;50.892;16.746;2023-07-24T09:55:52;98371.32;;;26.83;41.17
37200;BME280;23096;50.892;16.746;2023-07-24T09:58:21;98374.91;;;26.98;41.16
37200;BME280;23096;50.892;16.746;2023-07-24T10:00:48;98376.42;;;27.12;41.22
37200;BME280;23096;50.892;16.746;2023-07-24T10:03:14;98371.84;;;27.19;41.20
37200;BME280;23096;50.892;16.746;2023-07-24T10:05:43;98376.55;;;27.22;40.95
37200;BME280;23096;50.892;16.746;2023-07-24T10:08:10;98384.38;;;27.21;40.99
37200;BME280;23096;50.892;16.746;2023-07-24T10:10:38;98386.39;;;27.18;40.68
37200;BME280;23096;50.892;16.746;2023-07-24T10:13:04;98385.61;;;27.15;40.60
37200;BME280;23096;50.892;16.746;2023-07-24T10:15:30;98389.02;;;27.07;40.56
37200;BME280;23096;50.892;16.746;2023-07-24T10:18:06;98390.16;;;26.97;40.50
37200;BME280;23096;50.892;16.746;2023-07-24T10:20:37;98387.82;;;26.85;40.34
37200;BME280;23096;50.892;16.746;2023-07-24T10:23:04;98393.52;;;26.69;40.12
37200;BME280;23096;50.892;16.746;2023-07-24T10:25:31;98392.14;;;26.54;40.20
37200;BME280;23096;50.892;16.746;2023-07-24T10:28:11;98386.27;;;26.44;40.23
37200;BME280;23096;50.892;16.746;2023-07-24T10:30:39;98375.91;;;26.37;40.41
37200;BME280;23096;50.892;16.746;2023-07-24T10:33:12;98371.73;;;26.30;40.39
37200;BME280;23096;50.892;16.746;2023-07-24T10:35:42;98358.14;;;26.23;40.61
37200;BME280;23096;50.892;16.746;2023-07-24T10:38:10;98346.82;;;26.15;40.52
37200;BME280;23096;50.892;16.746;2023-07-24T10:40:36;98343.96;;;26.06;40.59
37200;BME280;23096;50.892;16.746;2023-07-24T10:43:11;98343.87;;;25.97;40.62
37200;BME280;23096;50.892;16.746;2023-07-24T10:45:46;98352.07;;;25.86;40.74
37200;BME280;23096;50.892;16.746;2023-07-24T10:48:13;98349.44;;;25.76;40.89
37200;BME280;23096;50.892;16.746;2023-07-24T10:50:48;98346.57;;;25.69;41.05
37200;BME280;23096;50.892;16.746;2023-07-24T10:53:20;98345.36;;;25.64;41.28
37200;BME280;23096;50.892;16.746;2023-07-24T10:55:47;98340.44;;;25.65;41.39
37200;BME280;23096;50.892;16.746;2023-07-24T10:58:13;98336.29;;;25.70;41.43
37200;BME280;23096;50.892;16.746;2023-07-24T11:00:40;98336.52;;;25.77;41.64
37200;BME280;23096;50.892;16.746;2023-07-24T11:03:13;98333.18;;;25.90;41.70
37200;BME280;23096;50.892;16.746;2023-07-24T11:05:40;98325.27;;;26.16;41.98
37200;BME280;23096;50.892;16.746;2023-07-24T11:08:14;98315.66;;;26.39;41.97
37200;BME280;23096;50.892;16.746;2023-07-24T11:10:56;98316.79;;;26.52;41.96
37200;BME280;23096;50.892;16.746;2023-07-24T11:13:23;98313.31;;;26.63;41.86
37200;BME280;23096;50.892;16.746;2023-07-24T11:15:49;98312.63;;;26.76;41.91
37200;BME280;23096;50.892;16.746;2023-07-24T11:18:16;98312.08;;;26.94;41.83
37200;BME280;23096;50.892;16.746;2023-07-24T11:20:53;98307.98;;;27.13;41.82
37200;BME280;23096;50.892;16.746;2023-07-24T11:23:19;98305.48;;;27.32;41.67
37200;BME280;23096;50.892;16.746;2023-07-24T11:25:45;98307.44;;;27.48;41.69
37200;BME280;23096;50.892;16.746;2023-07-24T11:28:13;98303.27;;;27.63;41.62
37200;BME280;23096;50.892;16.746;2023-07-24T11:30:40;98294.48;;;27.78;41.50
37200;BME280;23096;50.892;16.746;2023-07-24T11:33:08;98295.77;;;27.94;41.36
37200;BME280;23096;50.892;16.746;2023-07-24T11:35:34;98296.14;;;28.05;41.28
37200;BME280;23096;50.892;16.746;2023-07-24T11:38:01;98287.00;;;28.14;41.27
37200;BME280;23096;50.892;16.746;2023-07-24T11:40:32;98279.90;;;28.22;40.93
37200;BME280;23096;50.892;16.746;2023-07-24T11:43:16;98277.03;;;28.28;40.95
37200;BME280;23096;50.892;16.746;2023-07-24T11:45:44;98276.43;;;28.36;40.90
37200;BME280;23096;50.892;16.746;2023-07-24T11:48:11;98279.52;;;28.44;40.75
37200;BME280;23096;50.892;16.746;2023-07-24T11:50:55;98275.04;;;28.46;40.60
37200;BME280;23096;50.892;16.746;2023-07-24T11:53:28;98271.59;;;28.44;40.45
37200;BME280;23096;50.892;16.746;2023-07-24T11:55:56;98273.02;;;28.45;40.43
37200;BME280;23096;50.892;16.746;2023-07-24T11:58:25;98268.59;;;28.45;40.24
37200;BME280;23096;50.892;16.746;2023-07-24T12:00:51;98262.84;;;28.43;40.32
37200;BME280;23096;50.892;16.746;2023-07-24T12:05:47;98254.41;;;28.34;40.19
37200;BME280;23096;50.892;16.746;2023-07-24T12:08:13;98246.09;;;28.29;40.24
37200;BME280;23096;50.892;16.746;2023-07-24T12:10:43;98241.09;;;28.24;40.10
37200;BME280;23096;50.892;16.746;2023-07-24T12:13:09;98234.66;;;28.20;40.22
37200;BME280;23096;50.892;16.746;2023-07-24T12:15:35;98233.48;;;28.17;40.21
37200;BME280;23096;50.892;16.746;2023-07-24T12:18:01;98231.31;;;28.13;40.37
37200;BME280;23096;50.892;16.746;2023-07-24T12:20:27;98233.66;;;28.08;40.18
37200;BME280;23096;50.892;16.746;2023-07-24T12:22:53;98229.80;;;28.05;40.20
37200;BME280;23096;50.892;16.746;2023-07-24T12:25:20;98223.80;;;28.05;40.26
37200;BME280;23096;50.892;16.746;2023-07-24T12:27:46;98217.09;;;28.04;40.27
37200;BME280;23096;50.892;16.746;2023-07-24T12:30:12;98215.35;;;28.02;40.26
37200;BME280;23096;50.892;16.746;2023-07-24T12:32:38;98214.27;;;27.99;40.12
37200;BME280;23096;50.892;16.746;2023-07-24T12:35:04;98212.44;;;27.97;40.02
37200;BME280;23096;50.892;16.746;2023-07-24T12:37:30;98208.59;;;27.95;40.14
37200;BME280;23096;50.892;16.746;2023-07-24T12:39:56;98208.64;;;27.95;39.88
37200;BME280;23096;50.892;16.746;2023-07-24T12:42:21;98206.36;;;27.96;39.85
37200;BME280;23096;50.892;16.746;2023-07-24T12:44:47;98205.05;;;27.98;39.58
37200;BME280;23096;50.892;16.746;2023-07-24T12:47:12;98205.34;;;28.00;39.62
37200;BME280;23096;50.892;16.746;2023-07-24T12:49:38;98202.48;;;28.02;39.44
37200;BME280;23096;50.892;16.746;2023-07-24T12:52:04;98199.33;;;28.05;39.26
37200;BME280;23096;50.892;16.746;2023-07-24T12:54:31;98204.22;;;28.08;39.24
37200;BME280;23096;50.892;16.746;2023-07-24T12:56:57;98200.70;;;28.11;39.11